createdAt,value
2023-02-13T00:00:46.075Z,61.36
2023-02-13T00:03:14.023Z,61.46
2023-02-13T00:05:40.932Z,61.22
2023-02-13T00:08:07.871Z,60.91
2023-02-13T00:10:34.870Z,61.02
2023-02-13T00:13:01.769Z,61.08
2023-02-13T00:15:28.686Z,60.85
2023-02-13T00:17:55.604Z,60.42
2023-02-13T00:20:22.743Z,60.41
2023-02-13T00:22:49.645Z,60.45
2023-02-13T00:25:16.599Z,60.73
2023-02-13T00:27:43.570Z,60.23
2023-02-13T00:30:11.063Z,60.29
2023-02-13T00:32:37.950Z,59.99
2023-02-13T00:35:05.009Z,60.25
2023-02-13T00:37:33.358Z,59.90
2023-02-13T00:40:00.276Z,59.86
2023-02-13T00:42:27.169Z,60.11
2023-02-13T00:44:54.588Z,59.95
2023-02-13T00:47:22.048Z,59.85
2023-02-13T00:49:50.027Z,60.04
2023-02-13T00:52:16.929Z,59.72
2023-02-13T00:54:44.140Z,60.05
2023-02-13T00:57:12.822Z,59.85
2023-02-13T00:59:39.732Z,59.94
2023-02-13T01:02:06.605Z,59.76
2023-02-13T01:04:33.543Z,59.74
2023-02-13T01:07:00.551Z,59.54
2023-02-13T01:09:27.454Z,59.57
2023-02-13T01:11:54.379Z,59.61
2023-02-13T01:14:21.329Z,59.32
2023-02-13T01:16:49.508Z,59.70
2023-02-13T01:19:16.813Z,59.44
2023-02-13T01:21:44.392Z,59.65
2023-02-13T01:24:11.329Z,59.43
2023-02-13T01:26:38.289Z,59.22
2023-02-13T01:29:05.345Z,59.26
2023-02-13T01:31:32.893Z,59.19
2023-02-13T01:34:00.372Z,59.30
2023-02-13T01:36:27.820Z,59.35
2023-02-13T01:38:59.286Z,59.37
2023-02-13T01:41:27.774Z,59.11
2023-02-13T01:44:00.459Z,59.20
2023-02-13T01:46:39.041Z,59.17
2023-02-13T01:49:22.911Z,59.24
2023-02-13T01:51:54.311Z,59.10
2023-02-13T01:54:31.135Z,59.17
2023-02-13T01:57:18.556Z,59.11
2023-02-13T01:59:57.892Z,58.42
2023-02-13T02:02:29.205Z,59.08
2023-02-13T02:05:03.134Z,58.67
2023-02-13T02:07:31.834Z,58.96
2023-02-13T02:10:09.636Z,59.01
2023-02-13T02:12:52.551Z,59.04
2023-02-13T02:15:20.263Z,58.53
2023-02-13T02:17:47.631Z,58.75
2023-02-13T02:20:36.223Z,58.52
2023-02-13T02:23:49.733Z,58.70
2023-02-13T02:26:52.152Z,58.73
2023-02-13T02:29:41.458Z,58.95
2023-02-13T02:32:50.243Z,58.56
2023-02-13T02:35:54.698Z,58.68
2023-02-13T02:38:56.375Z,58.63
2023-02-13T02:42:03.801Z,58.62
2023-02-13T02:44:48.306Z,58.39
2023-02-13T02:47:53.538Z,58.52
2023-02-13T02:50:54.923Z,58.54
2023-02-13T02:53:44.369Z,58.49
2023-02-13T02:56:24.657Z,58.51
2023-02-13T02:59:20.505Z,58.37
2023-02-13T03:02:07.302Z,58.20
2023-02-13T03:05:00.006Z,58.33
2023-02-13T03:07:27.461Z,58.44
2023-02-13T03:10:17.335Z,57.99
2023-02-13T03:13:18.189Z,58.40
2023-02-13T03:16:05.531Z,58.24
2023-02-13T03:18:56.169Z,58.20
2023-02-13T03:22:05.967Z,58.26
2023-02-13T03:24:42.010Z,58.36
2023-02-13T03:27:46.907Z,58.11
2023-02-13T03:30:56.783Z,58.04
2023-02-13T03:33:57.282Z,58.09
2023-02-13T03:37:20.123Z,57.98
2023-02-13T03:40:08.952Z,58.04
2023-02-13T03:42:44.987Z,58.27
2023-02-13T03:45:37.612Z,57.91
2023-02-13T03:48:10.056Z,58.09
2023-02-13T03:50:44.449Z,56.91
2023-02-13T03:53:14.713Z,56.22
2023-02-13T03:56:04.874Z,56.01
2023-02-13T03:59:01.669Z,56.34
2023-02-13T04:01:32.180Z,56.84
2023-02-13T04:04:30.385Z,56.61
2023-02-13T04:07:29.394Z,56.69
2023-02-13T04:10:08.341Z,56.82
2023-02-13T04:12:54.079Z,56.68
2023-02-13T04:15:32.884Z,56.93
2023-02-13T04:18:19.357Z,56.50
2023-02-13T04:20:46.330Z,56.63
2023-02-13T04:23:13.847Z,56.65
2023-02-13T04:25:43.959Z,56.67
2023-02-13T04:28:10.880Z,56.58
2023-02-13T04:30:38.292Z,56.71
2023-02-13T04:33:05.338Z,56.66
2023-02-13T04:35:32.222Z,56.78
2023-02-13T04:37:59.125Z,56.98
2023-02-13T04:40:26.040Z,56.81
2023-02-13T04:42:52.913Z,56.52
2023-02-13T04:45:19.829Z,56.95
2023-02-13T04:47:51.490Z,56.83
2023-02-13T04:50:19.163Z,56.62
2023-02-13T04:52:46.206Z,56.36
2023-02-13T04:55:13.855Z,56.43
2023-02-13T04:57:40.732Z,56.31
2023-02-13T05:00:08.515Z,56.40
2023-02-13T05:02:35.367Z,56.22
2023-02-13T05:05:02.277Z,56.27
2023-02-13T05:07:29.214Z,55.98
2023-02-13T05:09:56.088Z,56.37
2023-02-13T05:12:22.924Z,55.94
2023-02-13T05:14:49.908Z,55.89
2023-02-13T05:17:16.856Z,55.34
2023-02-13T05:19:43.709Z,55.70
2023-02-13T05:22:30.166Z,55.67
2023-02-13T05:24:57.149Z,54.92
2023-02-13T05:27:24.056Z,54.92
2023-02-13T05:29:50.920Z,55.09
2023-02-13T05:32:17.923Z,54.86
2023-02-13T05:34:44.890Z,55.31
2023-02-13T05:37:11.785Z,54.90
2023-02-13T05:39:38.716Z,55.06
2023-02-13T05:42:05.917Z,54.99
2023-02-13T05:44:33.021Z,55.21
2023-02-13T05:46:59.908Z,54.82
2023-02-13T05:49:26.840Z,55.22
2023-02-13T05:51:53.695Z,54.87
2023-02-13T05:54:20.607Z,55.27
2023-02-13T05:56:47.502Z,54.98
2023-02-13T05:59:14.410Z,55.20
2023-02-13T06:01:41.503Z,54.80
2023-02-13T06:04:08.479Z,54.94
2023-02-13T06:06:35.424Z,54.94
2023-02-13T06:09:02.292Z,54.75
2023-02-13T06:11:29.298Z,54.89
2023-02-13T06:13:56.218Z,54.81
2023-02-13T06:16:23.200Z,55.01
2023-02-13T06:18:50.122Z,54.95
2023-02-13T06:21:17.018Z,54.54
2023-02-13T06:23:43.908Z,54.70
2023-02-13T06:26:10.808Z,54.63
2023-02-13T06:28:37.773Z,54.60
2023-02-13T06:31:05.085Z,54.49
2023-02-13T06:33:32.067Z,54.64
2023-02-13T06:35:59.497Z,54.41
2023-02-13T06:38:26.380Z,54.46
2023-02-13T06:40:53.297Z,54.08
2023-02-13T06:43:20.178Z,54.21
2023-02-13T06:45:47.281Z,53.90
2023-02-13T06:48:15.011Z,54.29
2023-02-13T06:50:41.936Z,54.66
2023-02-13T06:53:08.887Z,54.40
2023-02-13T06:55:36.752Z,54.69
2023-02-13T06:58:03.663Z,54.86
2023-02-13T07:00:30.605Z,54.71
2023-02-13T07:03:03.830Z,54.81
2023-02-13T07:05:30.788Z,54.93
2023-02-13T07:07:57.655Z,54.98
2023-02-13T07:10:24.569Z,54.79
2023-02-13T07:13:04.681Z,54.61
2023-02-13T07:15:34.549Z,54.66
2023-02-13T07:18:01.919Z,54.67
2023-02-13T07:20:29.278Z,54.75
2023-02-13T07:23:00.583Z,54.63
2023-02-13T07:25:28.580Z,54.76
2023-02-13T07:27:55.855Z,54.61
2023-02-13T07:30:22.765Z,54.83
2023-02-13T07:32:50.963Z,55.03
2023-02-13T07:35:17.936Z,54.73
2023-02-13T07:37:44.804Z,54.60
2023-02-13T07:40:11.956Z,54.89
2023-02-13T07:42:38.867Z,54.57
2023-02-13T07:45:07.517Z,54.80
2023-02-13T07:47:35.181Z,54.71
2023-02-13T07:50:05.884Z,54.75
2023-02-13T07:52:33.432Z,54.85
2023-02-13T07:55:00.345Z,54.54
2023-02-13T07:57:27.225Z,54.89
2023-02-13T07:59:54.115Z,54.74
2023-02-13T08:02:21.008Z,54.55
2023-02-13T08:04:47.910Z,54.72
2023-02-13T08:07:17.388Z,54.75
2023-02-13T08:10:04.142Z,54.33
2023-02-13T08:12:32.453Z,54.26
2023-02-13T08:14:59.327Z,53.92
2023-02-13T08:17:26.282Z,54.25
2023-02-13T08:19:53.178Z,54.23
2023-02-13T08:22:20.089Z,53.75
2023-02-13T08:24:47.017Z,53.99
2023-02-13T08:27:15.338Z,53.84
2023-02-13T08:29:42.221Z,53.99
2023-02-13T08:32:09.583Z,54.07
2023-02-13T08:34:36.535Z,53.94
2023-02-13T08:37:04.749Z,54.19
2023-02-13T08:39:31.620Z,53.89
2023-02-13T08:41:58.563Z,53.95
2023-02-13T08:44:25.422Z,53.92
2023-02-13T08:46:52.371Z,54.18
2023-02-13T08:49:19.277Z,53.61
2023-02-13T08:51:46.161Z,53.34
2023-02-13T08:54:13.315Z,53.24
2023-02-13T08:56:40.180Z,53.19
2023-02-13T08:59:07.026Z,53.32
2023-02-13T09:01:34.036Z,52.95
2023-02-13T09:04:00.935Z,53.25
2023-02-13T09:06:28.404Z,53.61
2023-02-13T09:08:55.539Z,53.53
2023-02-13T09:11:23.566Z,53.92
2023-02-13T09:13:53.581Z,53.38
2023-02-13T09:16:21.295Z,53.76
2023-02-13T09:18:52.429Z,53.48
2023-02-13T09:21:22.014Z,53.52
2023-02-13T09:23:48.911Z,53.65
2023-02-13T09:26:19.052Z,53.70
2023-02-13T09:28:47.374Z,53.37
2023-02-13T09:31:21.751Z,53.26
2023-02-13T09:33:50.360Z,53.18
2023-02-13T09:36:24.032Z,53.14
2023-02-13T09:38:56.645Z,53.08
2023-02-13T09:41:36.215Z,52.87
2023-02-13T09:44:34.877Z,52.87
2023-02-13T09:47:11.968Z,52.79
2023-02-13T09:49:44.731Z,52.69
2023-02-13T09:52:11.682Z,52.74
2023-02-13T09:54:38.680Z,52.79
2023-02-13T09:57:17.718Z,52.80
2023-02-13T10:00:16.403Z,52.58
2023-02-13T10:03:07.714Z,52.41
2023-02-13T10:06:00.291Z,52.11
2023-02-13T10:09:09.616Z,52.16
2023-02-13T10:12:01.413Z,51.79
2023-02-13T10:14:36.464Z,52.19
2023-02-13T10:17:12.654Z,52.27
2023-02-13T10:19:49.011Z,52.26
2023-02-13T10:22:30.465Z,52.26
2023-02-13T10:25:10.865Z,52.30
2023-02-13T10:27:47.005Z,52.18
2023-02-13T10:30:36.713Z,52.32
2023-02-13T10:33:20.349Z,52.26
2023-02-13T10:35:59.369Z,52.27
2023-02-13T10:38:31.642Z,52.25
2023-02-13T10:41:46.355Z,51.91
2023-02-13T10:44:42.210Z,52.15
2023-02-13T10:48:09.224Z,52.12
2023-02-13T10:51:26.333Z,51.97
2023-02-13T10:54:16.083Z,51.71
2023-02-13T10:57:16.156Z,51.64
2023-02-13T10:59:59.487Z,51.59
2023-02-13T11:02:29.766Z,51.47
2023-02-13T11:05:12.278Z,51.23
2023-02-13T11:07:39.696Z,51.09
2023-02-13T11:10:18.324Z,50.82
2023-02-13T11:12:45.938Z,50.89
2023-02-13T11:15:32.022Z,51.04
2023-02-13T11:18:19.921Z,50.57
2023-02-13T11:20:48.790Z,50.32
2023-02-13T11:23:36.981Z,50.55
2023-02-13T11:26:11.990Z,50.58
2023-02-13T11:28:53.975Z,50.73
2023-02-13T11:31:35.133Z,50.53
2023-02-13T11:34:21.879Z,50.56
2023-02-13T11:36:54.273Z,49.95
2023-02-13T11:39:27.137Z,50.27
2023-02-13T11:41:54.037Z,50.21
2023-02-13T11:44:31.641Z,50.34
2023-02-13T11:47:00.941Z,50.13
2023-02-13T11:49:34.433Z,50.20
2023-02-13T11:52:07.955Z,50.25
2023-02-13T11:54:39.158Z,50.36
2023-02-13T11:57:33.707Z,50.61
2023-02-13T12:00:29.303Z,50.05
2023-02-13T12:02:56.287Z,50.20
2023-02-13T12:05:27.559Z,50.09
2023-02-13T12:08:01.874Z,50.50
2023-02-13T12:10:34.111Z,49.69
2023-02-13T12:13:15.840Z,49.80
2023-02-13T12:15:44.846Z,49.64
2023-02-13T12:18:40.330Z,49.74
2023-02-13T12:21:42.965Z,49.89
2023-02-13T12:24:46.861Z,50.01
2023-02-13T12:27:48.621Z,49.68
2023-02-13T12:30:31.291Z,49.60
2023-02-13T12:33:34.903Z,49.37
2023-02-13T12:36:21.343Z,49.41
2023-02-13T12:39:25.088Z,49.12
2023-02-13T12:42:33.098Z,49.22
2023-02-13T12:45:18.294Z,49.60
2023-02-13T12:48:27.851Z,49.91
2023-02-13T12:51:19.600Z,49.72
2023-02-13T12:54:36.781Z,49.48
2023-02-13T12:57:12.798Z,49.52
2023-02-13T13:00:20.451Z,49.49
2023-02-13T13:03:27.224Z,49.47
2023-02-13T13:06:22.571Z,49.13
2023-02-13T13:09:35.228Z,49.18
2023-02-13T13:12:50.636Z,49.15
2023-02-13T13:15:55.549Z,49.35
2023-02-13T13:18:53.058Z,49.56
2023-02-13T13:21:47.576Z,49.52
2023-02-13T13:24:25.721Z,49.15
2023-02-13T13:26:57.357Z,48.80
2023-02-13T13:29:40.503Z,49.18
2023-02-13T13:32:13.733Z,49.42
2023-02-13T13:34:40.651Z,49.04
2023-02-13T13:37:37.406Z,49.28
2023-02-13T13:40:42.840Z,49.02
2023-02-13T13:43:33.804Z,49.33
2023-02-13T13:46:35.999Z,49.01
2023-02-13T13:49:52.741Z,48.66
2023-02-13T13:52:22.654Z,49.17
2023-02-13T13:54:53.044Z,48.88
2023-02-13T13:57:24.876Z,49.30
2023-02-13T14:00:02.117Z,49.11
2023-02-13T14:03:11.092Z,49.40
2023-02-13T14:06:01.013Z,48.78
2023-02-13T14:08:44.317Z,48.93
2023-02-13T14:11:46.733Z,48.53
2023-02-13T14:14:36.525Z,48.74
2023-02-13T14:17:04.525Z,48.88
2023-02-13T14:19:40.454Z,48.64
2023-02-13T14:22:19.597Z,48.94
2023-02-13T14:25:26.102Z,48.92
2023-02-13T14:28:04.905Z,48.74
2023-02-13T14:30:35.709Z,48.58
2023-02-13T14:33:25.990Z,48.86
2023-02-13T14:36:03.753Z,48.45
2023-02-13T14:38:31.188Z,48.30
2023-02-13T14:40:59.036Z,48.53
2023-02-13T14:43:51.385Z,48.43
2023-02-13T14:46:41.256Z,48.79
2023-02-13T14:49:17.885Z,49.07
2023-02-13T14:51:54.640Z,49.37
2023-02-13T14:54:37.616Z,48.77
2023-02-13T14:57:26.131Z,48.63
2023-02-13T15:00:08.673Z,48.41
2023-02-13T15:02:46.853Z,48.32
2023-02-13T15:05:22.125Z,48.58
2023-02-13T15:08:13.340Z,48.65
2023-02-13T15:10:52.279Z,48.82
2023-02-13T15:13:37.415Z,48.94
2023-02-13T15:16:09.910Z,48.35
2023-02-13T15:18:42.080Z,48.21
2023-02-13T15:21:20.176Z,48.76
2023-02-13T15:23:53.091Z,48.60
2023-02-13T15:26:23.896Z,49.07
2023-02-13T15:29:27.807Z,49.04
2023-02-13T15:31:58.906Z,48.95
2023-02-13T15:34:35.772Z,49.32
2023-02-13T15:37:03.299Z,49.21
2023-02-13T15:39:32.306Z,48.97
2023-02-13T15:42:01.853Z,49.38
2023-02-13T15:44:33.077Z,49.42
2023-02-13T15:47:16.373Z,49.63
2023-02-13T15:49:46.226Z,49.70
2023-02-13T15:52:35.166Z,49.66
2023-02-13T15:55:02.094Z,49.65
2023-02-13T15:57:29.622Z,49.70
2023-02-13T15:59:57.640Z,49.52
2023-02-13T16:02:48.698Z,49.15
2023-02-13T16:05:20.013Z,49.23
2023-02-13T16:07:59.601Z,49.35
2023-02-13T16:10:33.357Z,49.38
2023-02-13T16:13:16.737Z,49.71
2023-02-13T16:15:44.411Z,49.72
2023-02-13T16:18:20.092Z,49.69
2023-02-13T16:20:53.570Z,49.76
2023-02-13T16:23:21.162Z,49.67
2023-02-13T16:25:48.808Z,49.83
2023-02-13T16:28:22.166Z,49.86
2023-02-13T16:30:59.974Z,49.65
2023-02-13T16:33:33.353Z,50.05
2023-02-13T16:36:10.597Z,49.90
2023-02-13T16:38:49.479Z,50.32
2023-02-13T16:41:19.348Z,50.19
2023-02-13T16:43:57.331Z,50.40
2023-02-13T16:46:34.430Z,50.43
2023-02-13T16:49:10.425Z,50.53
2023-02-13T16:51:48.544Z,50.68
2023-02-13T16:54:25.513Z,50.69
2023-02-13T16:57:13.022Z,50.80
2023-02-13T17:00:21.882Z,50.46
2023-02-13T17:02:50.775Z,50.71
2023-02-13T17:05:28.090Z,50.82
2023-02-13T17:08:01.359Z,50.73
2023-02-13T17:10:37.555Z,50.81
2023-02-13T17:13:19.276Z,50.97
2023-02-13T17:15:48.420Z,50.93
2023-02-13T17:18:15.350Z,50.86
2023-02-13T17:20:44.428Z,50.80
2023-02-13T17:23:24.040Z,50.63
2023-02-13T17:25:52.638Z,50.36
2023-02-13T17:28:26.829Z,50.25
2023-02-13T17:30:57.565Z,50.08
2023-02-13T17:33:28.241Z,50.27
2023-02-13T17:35:55.208Z,50.54
2023-02-13T17:38:22.360Z,50.48
2023-02-13T17:40:49.498Z,50.77
2023-02-13T17:43:20.556Z,50.78
2023-02-13T17:45:49.551Z,50.67
2023-02-13T17:48:16.832Z,50.88
2023-02-13T17:50:44.062Z,50.88
2023-02-13T17:53:26.153Z,50.92
2023-02-13T17:55:53.142Z,50.92
2023-02-13T17:58:20.040Z,50.74
2023-02-13T18:00:47.003Z,51.09
2023-02-13T18:03:14.184Z,50.71
2023-02-13T18:05:41.450Z,50.59
2023-02-13T18:08:08.917Z,50.54
2023-02-13T18:10:37.518Z,50.79
2023-02-13T18:13:04.797Z,50.81
2023-02-13T18:15:34.816Z,50.80
2023-02-13T18:18:01.975Z,50.63
2023-02-13T18:20:28.867Z,51.04
2023-02-13T18:22:55.764Z,50.73
2023-02-13T18:25:23.631Z,50.77
2023-02-13T18:27:51.067Z,50.77
2023-02-13T18:30:20.582Z,51.09
2023-02-13T18:32:53.533Z,51.10
2023-02-13T18:35:21.891Z,51.19
2023-02-13T18:37:49.909Z,51.20
2023-02-13T18:40:17.732Z,51.38
2023-02-13T18:42:44.906Z,51.00
2023-02-13T18:45:12.317Z,51.17
2023-02-13T18:47:39.585Z,51.22
2023-02-13T18:50:07.742Z,51.21
2023-02-13T18:52:35.172Z,51.40
2023-02-13T18:55:02.236Z,51.37
2023-02-13T18:57:29.122Z,51.24
2023-02-13T18:59:56.115Z,51.63
2023-02-13T19:02:23.436Z,51.40
2023-02-13T19:04:50.423Z,51.61
2023-02-13T19:07:17.319Z,51.72
2023-02-13T19:09:44.450Z,51.63
2023-02-13T19:12:11.564Z,51.69
2023-02-13T19:14:39.401Z,51.55
2023-02-13T19:17:08.446Z,51.80
2023-02-13T19:19:35.331Z,51.76
2023-02-13T19:22:03.325Z,51.68
2023-02-13T19:24:30.342Z,51.67
2023-02-13T19:26:57.216Z,51.71
2023-02-13T19:29:24.115Z,51.75
2023-02-13T19:31:51.034Z,51.72
2023-02-13T19:34:17.951Z,51.65
2023-02-13T19:36:44.834Z,51.54
2023-02-13T19:39:11.905Z,51.64
2023-02-13T19:41:40.574Z,51.79
2023-02-13T19:44:08.684Z,51.88
2023-02-13T19:46:37.155Z,51.76
2023-02-13T19:49:04.888Z,51.79
2023-02-13T19:51:33.872Z,51.61
2023-02-13T19:54:08.636Z,51.65
2023-02-13T19:56:38.491Z,51.80
2023-02-13T19:59:08.952Z,51.62
2023-02-13T20:01:35.870Z,51.69
2023-02-13T20:04:02.879Z,51.73
2023-02-13T20:06:36.364Z,51.98
2023-02-13T20:09:09.854Z,51.69
2023-02-13T20:11:37.158Z,52.00
2023-02-13T20:14:05.399Z,51.72
2023-02-13T20:16:35.355Z,51.91
2023-02-13T20:19:06.337Z,51.86
2023-02-13T20:21:34.373Z,52.07
2023-02-13T20:24:03.030Z,51.59
2023-02-13T20:26:30.168Z,51.78
2023-02-13T20:28:59.435Z,51.97
2023-02-13T20:31:27.330Z,52.26
2023-02-13T20:33:54.564Z,52.20
2023-02-13T20:36:28.227Z,52.09
2023-02-13T20:38:59.974Z,52.21
2023-02-13T20:41:29.981Z,52.19
2023-02-13T20:44:03.282Z,52.09
2023-02-13T20:46:35.490Z,51.99
2023-02-13T20:49:02.517Z,52.22
2023-02-13T20:51:29.663Z,52.18
2023-02-13T20:53:57.130Z,52.29
2023-02-13T20:56:25.616Z,52.20
2023-02-13T20:58:55.887Z,52.40
2023-02-13T21:01:35.482Z,52.33
2023-02-13T21:04:02.696Z,52.35
2023-02-13T21:06:33.462Z,52.39
2023-02-13T21:09:01.421Z,52.55
2023-02-13T21:11:29.420Z,52.48
2023-02-13T21:13:57.718Z,52.30
2023-02-13T21:16:29.272Z,52.52
2023-02-13T21:18:59.244Z,52.52
2023-02-13T21:21:31.276Z,52.52
2023-02-13T21:24:07.938Z,52.42
2023-02-13T21:26:35.851Z,52.43
2023-02-13T21:29:03.408Z,52.68
2023-02-13T21:31:44.144Z,52.67
2023-02-13T21:34:12.317Z,52.32
2023-02-13T21:36:40.617Z,52.73
2023-02-13T21:39:10.020Z,52.74
2023-02-13T21:41:39.265Z,52.67
2023-02-13T21:44:06.182Z,52.54
2023-02-13T21:46:34.070Z,52.40
2023-02-13T21:49:04.858Z,52.55
2023-02-13T21:51:34.951Z,52.83
2023-02-13T21:54:02.913Z,52.56
2023-02-13T21:56:33.147Z,52.73
2023-02-13T21:59:00.465Z,52.74
2023-02-13T22:01:33.869Z,52.87
2023-02-13T22:04:04.309Z,52.93
2023-02-13T22:06:34.479Z,53.05
2023-02-13T22:09:13.962Z,52.96
2023-02-13T22:11:42.299Z,52.92
2023-02-13T22:14:16.890Z,53.00
2023-02-13T22:16:45.172Z,52.96
2023-02-13T22:19:14.823Z,52.88
2023-02-13T22:21:41.745Z,52.96
2023-02-13T22:24:09.149Z,52.95
2023-02-13T22:26:39.003Z,52.86
2023-02-13T22:29:09.869Z,52.99
2023-02-13T22:31:37.150Z,52.85
2023-02-13T22:34:05.861Z,52.96
2023-02-13T22:36:40.476Z,52.92
2023-02-13T22:39:09.717Z,52.88
2023-02-13T22:41:37.063Z,53.00
2023-02-13T22:44:04.267Z,52.89
2023-02-13T22:46:33.661Z,52.96
2023-02-13T22:49:01.443Z,52.89
2023-02-13T22:51:34.493Z,52.95
2023-02-13T22:54:01.636Z,53.04
2023-02-13T22:56:30.165Z,52.77
2023-02-13T22:58:57.938Z,53.06
2023-02-13T23:01:26.967Z,53.14
2023-02-13T23:03:54.963Z,53.07
2023-02-13T23:06:22.645Z,53.08
2023-02-13T23:08:52.573Z,53.07
2023-02-13T23:11:41.498Z,53.25
2023-02-13T23:14:10.025Z,53.37
2023-02-13T23:16:57.726Z,53.14
2023-02-13T23:19:25.513Z,52.92
2023-02-13T23:21:52.415Z,53.20
2023-02-13T23:24:19.321Z,53.41
2023-02-13T23:26:46.203Z,53.11
2023-02-13T23:29:13.411Z,52.92
2023-02-13T23:31:40.449Z,53.03
2023-02-13T23:34:07.488Z,52.92
2023-02-13T23:36:34.832Z,52.86
2023-02-13T23:39:01.722Z,52.82
2023-02-13T23:41:28.817Z,53.20
2023-02-13T23:43:55.695Z,53.10
2023-02-13T23:46:22.657Z,52.88
2023-02-13T23:48:49.612Z,52.88
2023-02-13T23:51:18.318Z,52.81
2023-02-13T23:53:45.199Z,52.77
2023-02-13T23:56:12.097Z,52.92
2023-02-13T23:58:38.974Z,53.02
